Time;durP1;ratioP1;P1;durP2;ratioP2;P2;SDS_P1;SDS_P2;PMS_P1;PMS_P2;Temp;Humidity;BMP_temperature;BMP_pressure;BME280_temperature;BME280_humidity;BME280_pressure;Samples;Min_cycle;Max_cycle;Signal;HPM_P1;HPM_P2
2022/05/20 00:08:21;;;;;;;4.83;3.13;;;19.50;98.90;;;;;;21084750;28;20236;-68
2022/05/20 00:18:23;;;;;;;3.47;2.90;;;19.40;99.20;;;;;;21083755;28;20713;-68
2022/05/20 00:28:28;;;;;;;4.57;3.10;;;19.40;99.20;;;;;;21082721;28;20247;-79
2022/05/20 00:38:31;;;;;;;4.47;2.83;;;19.30;99.10;;;;;;21082439;28;20237;-69
2022/05/20 00:48:34;;;;;;;6.50;3.03;;;19.20;99.40;;;;;;21082410;28;20213;-71
2022/05/20 00:58:35;;;;;;;5.23;3.47;;;19.10;99.60;;;;;;21081722;28;20235;-71
2022/05/20 01:08:39;;;;;;;6.53;3.17;;;19.00;99.50;;;;;;21080790;28;20206;-66
2022/05/20 01:18:43;;;;;;;5.00;3.17;;;18.90;99.80;;;;;;21080174;28;20242;-67
2022/05/20 01:28:45;;;;;;;7.10;2.70;;;18.80;99.90;;;;;;21078827;28;20610;-67
2022/05/20 01:38:49;;;;;;;5.63;3.03;;;18.80;99.90;;;;;;21078726;28;20232;-70
2022/05/20 01:49:11;;;;;;;4.60;3.17;;;18.50;99.70;;;;;;21078378;28;20254;-70
2022/05/20 01:59:25;;;;;;;7.73;3.43;;;18.50;99.90;;;;;;21060562;28;20230;-70
2022/05/20 02:09:44;;;;;;;7.13;3.50;;;18.40;99.90;;;;;;21085336;28;20202;-68
2022/05/20 02:20:04;;;;;;;10.27;3.60;;;18.30;99.90;;;;;;21081599;28;20291;-67
2022/05/20 02:30:13;;;;;;;5.70;3.50;;;18.40;99.90;;;;;;21076485;28;20221;-68
2022/05/20 02:40:17;;;;;;;9.53;4.07;;;18.40;99.90;;;;;;21076039;28;20229;-68
2022/05/20 02:50:19;;;;;;;7.27;3.60;;;18.40;99.90;;;;;;21085041;28;20214;-68
2022/05/20 03:10:41;;;;;;;9.33;3.90;;;18.30;99.90;;;;;;21089731;28;20212;-66
2022/05/20 03:20:44;;;;;;;6.93;3.50;;;18.40;99.90;;;;;;21100833;28;20244;-68
2022/05/20 03:30:46;;;;;;;5.80;4.63;;;18.40;99.90;;;;;;21089097;28;20580;-77
2022/05/20 03:40:47;;;;;;;9.07;5.37;;;18.40;99.90;;;;;;21087113;28;20237;-76
2022/05/20 03:50:49;;;;;;;12.60;5.73;;;18.50;99.90;;;;;;21086702;28;20272;-77
2022/05/20 04:11:11;;;;;;;10.27;5.00;;;18.60;99.90;;;;;;21085113;28;20308;-69
2022/05/20 04:21:14;;;;;;;7.40;4.20;;;18.70;99.90;;;;;;21084341;28;20868;-66
2022/05/20 04:31:16;;;;;;;8.57;4.43;;;18.80;99.90;;;;;;21083835;28;20207;-66
2022/05/20 04:51:40;;;;;;;7.23;5.50;;;18.90;99.90;;;;;;21085025;28;20199;-69
2022/05/20 05:01:42;;;;;;;6.73;5.27;;;18.90;99.90;;;;;;21080913;28;20241;-79
2022/05/20 05:11:44;;;;;;;10.57;5.43;;;19.00;99.90;;;;;;21079270;28;20298;-69
2022/05/20 05:21:45;;;;;;;10.43;6.70;;;19.10;99.90;;;;;;21079544;28;20254;-68
2022/05/20 05:31:48;;;;;;;11.23;6.73;;;19.10;99.90;;;;;;21078651;28;20209;-70
2022/05/20 05:41:50;;;;;;;11.33;6.90;;;19.30;99.90;;;;;;21077168;28;20238;-69
2022/05/20 05:51:53;;;;;;;13.43;8.20;;;19.30;99.90;;;;;;21075623;28;20208;-70
2022/05/20 06:01:59;;;;;;;10.30;6.60;;;19.50;99.90;;;;;;21077721;28;20239;-67
2022/05/20 06:12:01;;;;;;;13.23;6.20;;;19.60;99.90;;;;;;21078243;28;20205;-68
2022/05/20 06:22:03;;;;;;;8.33;6.83;;;19.60;99.90;;;;;;21079494;28;20244;-67
2022/05/20 06:32:05;;;;;;;12.07;7.83;;;19.70;99.90;;;;;;21093795;28;20205;-74
2022/05/20 06:42:07;;;;;;;11.07;6.47;;;19.70;99.90;;;;;;21113396;28;20263;-67
2022/05/20 06:52:09;;;;;;;7.37;5.50;;;19.60;99.90;;;;;;21080593;28;20203;-69
2022/05/20 07:02:30;;;;;;;11.53;6.97;;;19.80;99.90;;;;;;21006380;28;20295;-72
2022/05/20 07:12:34;;;;;;;13.20;6.93;;;19.90;99.90;;;;;;21071155;28;20197;-72
2022/05/20 07:22:36;;;;;;;10.50;6.73;;;19.90;99.90;;;;;;21083222;28;20258;-70
2022/05/20 07:32:38;;;;;;;5.70;5.10;;;20.20;99.90;;;;;;21082847;28;20213;-66
2022/05/20 07:42:40;;;;;;;10.90;5.77;;;20.50;99.90;;;;;;21086514;28;20609;-65
2022/05/20 08:03:13;;;;;;;8.80;5.30;;;20.90;99.90;;;;;;21097994;28;20269;-66
2022/05/20 08:13:17;;;;;;;7.13;6.03;;;21.20;99.90;;;;;;21078526;28;20234;-68
2022/05/20 08:23:19;;;;;;;11.07;5.80;;;21.50;99.90;;;;;;21083506;28;20304;-63
2022/05/20 08:33:25;;;;;;;6.53;5.23;;;21.70;99.90;;;;;;21083193;28;20283;-64
2022/05/20 08:43:31;;;;;;;6.57;5.10;;;22.00;99.90;;;;;;21082041;28;20230;-63
2022/05/20 08:53:43;;;;;;;5.70;4.90;;;22.20;99.90;;;;;;21079303;28;20210;-62
2022/05/20 09:03:45;;;;;;;7.10;5.40;;;22.50;99.50;;;;;;21079470;28;20240;-62
2022/05/20 09:24:16;;;;;;;6.90;4.53;;;23.00;98.80;;;;;;21079163;28;20379;-66
2022/05/20 09:34:31;;;;;;;10.63;4.97;;;23.20;98.10;;;;;;21078173;28;20202;-62
2022/05/20 09:44:39;;;;;;;7.93;5.07;;;23.40;97.30;;;;;;21077280;28;20329;-64
2022/05/20 09:54:45;;;;;;;8.13;4.90;;;23.60;96.60;;;;;;21078120;28;20234;-65
2022/05/20 10:05:12;;;;;;;9.33;4.87;;;23.90;96.10;;;;;;21094697;28;20241;-63
2022/05/20 10:15:33;;;;;;;8.27;5.37;;;24.10;95.70;;;;;;21094143;28;20207;-63
2022/05/20 10:26:21;;;;;;;9.50;5.13;;;24.30;95.30;;;;;;21074645;28;20765;-65
2022/05/20 10:36:38;;;;;;;9.80;5.60;;;24.50;95.00;;;;;;21017104;28;20283;-64
2022/05/20 10:58:13;;;;;;;8.30;5.50;;;24.90;94.50;;;;;;21045599;28;20215;-64
2022/05/20 11:08:36;;;;;;;7.60;5.00;;;25.30;94.20;;;;;;21057976;28;20202;-65
2022/05/20 11:18:47;;;;;;;5.50;4.60;;;25.50;93.60;;;;;;21172991;28;20634;-66
2022/05/20 11:29:01;;;;;;;11.40;5.57;;;25.30;93.00;;;;;;21116484;28;20210;-64
2022/05/20 11:39:37;;;;;;;5.40;4.23;;;25.40;92.60;;;;;;21047357;28;20226;-74
2022/05/20 11:49:57;;;;;;;10.90;4.80;;;25.60;92.30;;;;;;21004396;28;20222;-61
2022/05/20 12:00:08;;;;;;;13.60;4.40;;;25.80;91.90;;;;;;21000109;28;20456;-65
2022/05/20 12:10:31;;;;;;;5.13;4.17;;;26.30;91.10;;;;;;21001580;28;20649;-61
2022/05/20 12:31:22;;;;;;;7.20;3.87;;;27.00;81.60;;;;;;20998795;28;20294;-63
2022/05/20 12:41:44;;;;;;;8.77;3.70;;;27.30;74.50;;;;;;21041464;28;20310;-65
2022/05/20 12:51:52;;;;;;;11.10;4.30;;;27.10;72.30;;;;;;21133172;28;20210;-62
2022/05/20 13:01:57;;;;;;;6.07;3.80;;;27.30;71.30;;;;;;21163083;28;20642;-63
2022/05/20 13:12:08;;;;;;;8.77;4.20;;;27.40;70.30;;;;;;21161205;28;20297;-64
2022/05/20 13:22:11;;;;;;;10.33;3.77;;;27.60;68.90;;;;;;21160487;28;20232;-63
2022/05/20 13:32:43;;;;;;;5.77;3.80;;;27.90;67.20;;;;;;21163657;28;20202;-63
2022/05/20 13:42:50;;;;;;;10.30;3.80;;;28.10;66.20;;;;;;21145386;28;20229;-63
2022/05/20 13:52:57;;;;;;;10.85;3.70;;;28.20;63.80;;;;;;21162056;28;20201;-62
2022/05/20 14:03:19;;;;;;;7.95;3.72;;;28.40;62.20;;;;;;21162129;28;20238;-63
2022/05/20 14:13:35;;;;;;;8.15;3.70;;;28.50;62.10;;;;;;21161666;28;20214;-63
2022/05/20 14:23:49;;;;;;;9.02;3.90;;;28.50;61.80;;;;;;21142897;28;20245;-71
2022/05/20 14:33:55;;;;;;;5.68;4.10;;;28.20;62.00;;;;;;21161808;28;20224;-63
2022/05/20 14:44:00;;;;;;;7.80;4.10;;;28.00;62.80;;;;;;21149019;28;20295;-63
2022/05/20 14:54:04;;;;;;;7.67;3.97;;;27.80;65.20;;;;;;21026404;28;20581;-65
2022/05/20 15:04:06;;;;;;;11.13;3.80;;;27.60;66.10;;;;;;21007493;28;20238;-66
2022/05/20 15:14:09;;;;;;;8.90;3.90;;;27.50;66.30;;;;;;21005942;28;20203;-63
2022/05/20 15:24:44;;;;;;;7.73;3.90;;;27.50;66.80;;;;;;20987150;28;20243;-67
2022/05/20 15:34:52;;;;;;;10.50;4.20;;;27.20;67.70;;;;;;20994103;28;20211;-65
2022/05/20 15:44:54;;;;;;;6.83;4.40;;;27.00;69.10;;;;;;21004093;28;20691;-64
2022/05/20 15:54:57;;;;;;;8.77;4.17;;;26.80;70.50;;;;;;21002649;28;20258;-63
2022/05/20 16:05:18;;;;;;;7.27;4.20;;;26.60;70.20;;;;;;21032173;28;20239;-65
2022/05/20 16:15:20;;;;;;;9.27;4.10;;;26.70;70.50;;;;;;21003102;28;20211;-63
2022/05/20 16:25:22;;;;;;;15.03;4.70;;;26.70;71.20;;;;;;21001329;28;20273;-62
2022/05/20 16:35:24;;;;;;;8.05;3.70;;;27.50;69.30;;;;;;21000662;28;20199;-64
2022/05/20 16:45:26;;;;;;;6.67;3.63;;;28.10;67.40;;;;;;21022287;28;20226;-65
2022/05/20 16:55:28;;;;;;;7.87;3.83;;;27.50;67.20;;;;;;21101184;28;20242;-65
2022/05/20 17:05:30;;;;;;;9.00;3.67;;;27.30;67.10;;;;;;21083049;28;20291;-66
2022/05/20 17:15:32;;;;;;;5.33;3.13;;;27.10;66.80;;;;;;21082067;28;20199;-65
2022/05/20 17:25:34;;;;;;;5.43;3.00;;;27.00;67.00;;;;;;20979493;28;20273;-65
2022/05/20 17:35:36;;;;;;;8.30;3.13;;;26.90;66.90;;;;;;20996466;28;20208;-66
2022/05/20 17:45:38;;;;;;;8.47;3.27;;;26.80;66.40;;;;;;20996091;28;20242;-64
2022/05/20 17:55:40;;;;;;;6.23;2.97;;;26.70;66.70;;;;;;20995429;28;20290;-66
2022/05/20 18:05:42;;;;;;;10.40;3.40;;;26.40;67.10;;;;;;20994803;28;20235;-64
2022/05/20 18:15:43;;;;;;;8.63;3.30;;;26.20;66.40;;;;;;20994426;28;20214;-64
2022/05/20 18:25:46;;;;;;;7.13;3.03;;;26.00;65.90;;;;;;21080640;28;20613;-64
2022/05/20 18:46:09;;;;;;;14.73;3.30;;;25.70;65.30;;;;;;21090445;28;20276;-71
2022/05/20 18:56:11;;;;;;;13.17;3.80;;;25.60;64.50;;;;;;21044250;28;20199;-70
2022/05/20 19:06:17;;;;;;;8.47;4.37;;;25.60;64.30;;;;;;21089874;28;20698;-66
2022/05/20 19:16:20;;;;;;;13.77;5.27;;;25.50;64.60;;;;;;21088891;28;20740;-63
2022/05/20 19:26:22;;;;;;;11.07;3.23;;;25.50;65.40;;;;;;21087507;28;20234;-64
2022/05/20 19:36:26;;;;;;;19.27;3.63;;;25.30;67.20;;;;;;21068321;28;20199;-72
2022/05/20 19:46:29;;;;;;;8.37;3.50;;;25.10;68.70;;;;;;21085800;28;20234;-70
2022/05/20 19:56:31;;;;;;;13.07;3.60;;;25.00;70.10;;;;;;21085457;28;20214;-63
2022/05/20 20:06:33;;;;;;;8.93;3.97;;;24.90;71.10;;;;;;21084520;28;20251;-63
2022/05/20 20:16:34;;;;;;;10.57;3.00;;;24.60;74.30;;;;;;21065835;28;20231;-67
2022/05/20 20:26:37;;;;;;;13.30;3.50;;;24.10;79.30;;;;;;21082511;28;20728;-65
2022/05/20 20:36:39;;;;;;;6.90;3.27;;;23.70;82.10;;;;;;21082802;28;20264;-65
2022/05/20 20:46:42;;;;;;;5.43;2.83;;;23.30;85.60;;;;;;21082195;28;20234;-66
2022/05/20 20:56:44;;;;;;;4.10;2.30;;;23.00;87.60;;;;;;21075995;28;20291;-67
2022/05/20 21:06:46;;;;;;;3.23;2.50;;;22.80;87.60;;;;;;21079496;28;20235;-66
2022/05/20 21:16:47;;;;;;;3.37;2.43;;;22.60;88.50;;;;;;21082455;28;20239;-63
2022/05/20 21:26:50;;;;;;;2.60;2.10;;;22.20;90.00;;;;;;21081492;28;20289;-68
2022/05/20 21:36:51;;;;;;;3.37;2.30;;;22.10;90.00;;;;;;21080706;28;20209;-64
2022/05/20 21:46:55;;;;;;;5.90;2.40;;;22.10;90.40;;;;;;21080132;28;20287;-71
2022/05/20 21:57:01;;;;;;;4.90;2.30;;;22.20;90.40;;;;;;21089406;28;20202;-73
2022/05/20 22:17:24;;;;;;;3.70;2.60;;;22.00;90.90;;;;;;21079599;28;20238;-70
2022/05/20 22:27:30;;;;;;;7.40;2.40;;;22.00;91.10;;;;;;21077319;28;20241;-69
2022/05/20 22:37:33;;;;;;;5.57;2.37;;;21.90;91.30;;;;;;21076679;28;20290;-73
2022/05/20 22:47:34;;;;;;;4.03;2.30;;;21.70;91.20;;;;;;21076883;28;20245;-65
2022/05/20 22:57:38;;;;;;;6.13;2.67;;;21.50;91.10;;;;;;21067132;28;20248;-64
2022/05/20 23:07:39;;;;;;;5.60;2.43;;;21.60;90.90;;;;;;21085256;28;20275;-65
2022/05/20 23:17:41;;;;;;;3.27;2.53;;;21.10;90.50;;;;;;21090081;28;20235;-64
2022/05/20 23:27:43;;;;;;;4.03;2.30;;;20.80;89.80;;;;;;21089194;28;20653;-63
2022/05/20 23:37:44;;;;;;;3.37;2.00;;;20.20;87.80;;;;;;21088337;28;20202;-62
2022/05/20 23:47:47;;;;;;;5.43;3.93;;;19.90;88.70;;;;;;21087441;28;20325;-66
2022/05/20 23:57:48;;;;;;;3.10;1.90;;;19.80;87.30;;;;;;21086723;28;20242;-63
